sensor_id;sensor_type;location;lat;lon;timestamp;P1;durP1;ratioP1;P2;durP2;ratioP2
7693;SDS011;3889;48.162;11.510;2022-10-31T00:01:24;12.32;;;8.30;;
7693;SDS011;3889;48.162;11.510;2022-10-31T00:03:54;11.90;;;8.00;;
7693;SDS011;3889;48.162;11.510;2022-10-31T00:06:23;12.20;;;8.10;;
7693;SDS011;3889;48.162;11.510;2022-10-31T00:08:52;14.00;;;8.18;;
7693;SDS011;3889;48.162;11.510;2022-10-31T00:11:21;12.73;;;7.75;;
7693;SDS011;3889;48.162;11.510;2022-10-31T00:13:49;11.85;;;8.13;;
7693;SDS011;3889;48.162;11.510;2022-10-31T00:16:17;13.02;;;8.30;;
7693;SDS011;3889;48.162;11.510;2022-10-31T00:18:47;10.70;;;7.55;;
7693;SDS011;3889;48.162;11.510;2022-10-31T00:21:16;10.75;;;7.30;;
7693;SDS011;3889;48.162;11.510;2022-10-31T00:23:45;12.45;;;7.55;;
7693;SDS011;3889;48.162;11.510;2022-10-31T00:26:13;10.63;;;6.93;;
7693;SDS011;3889;48.162;11.510;2022-10-31T00:28:41;13.05;;;7.50;;
7693;SDS011;3889;48.162;11.510;2022-10-31T00:31:10;9.38;;;7.20;;
7693;SDS011;3889;48.162;11.510;2022-10-31T00:33:39;10.50;;;7.60;;
7693;SDS011;3889;48.162;11.510;2022-10-31T00:36:10;11.43;;;7.25;;
7693;SDS011;3889;48.162;11.510;2022-10-31T00:38:39;11.57;;;7.80;;
7693;SDS011;3889;48.162;11.510;2022-10-31T00:41:09;12.48;;;7.57;;
7693;SDS011;3889;48.162;11.510;2022-10-31T00:43:37;12.87;;;7.93;;
7693;SDS011;3889;48.162;11.510;2022-10-31T00:46:04;9.93;;;7.70;;
7693;SDS011;3889;48.162;11.510;2022-10-31T00:48:32;13.30;;;7.65;;
7693;SDS011;3889;48.162;11.510;2022-10-31T00:51:01;11.73;;;7.47;;
7693;SDS011;3889;48.162;11.510;2022-10-31T00:53:28;12.03;;;7.13;;
7693;SDS011;3889;48.162;11.510;2022-10-31T00:55:56;10.25;;;7.28;;
7693;SDS011;3889;48.162;11.510;2022-10-31T00:58:25;9.77;;;7.70;;
7693;SDS011;3889;48.162;11.510;2022-10-31T01:00:53;12.35;;;8.50;;
7693;SDS011;3889;48.162;11.510;2022-10-31T01:03:22;11.85;;;7.80;;
7693;SDS011;3889;48.162;11.510;2022-10-31T01:05:59;10.43;;;7.85;;
7693;SDS011;3889;48.162;11.510;2022-10-31T01:08:29;13.70;;;7.97;;
7693;SDS011;3889;48.162;11.510;2022-10-31T01:10:57;12.10;;;7.90;;
7693;SDS011;3889;48.162;11.510;2022-10-31T01:13:32;14.35;;;8.00;;
7693;SDS011;3889;48.162;11.510;2022-10-31T01:16:00;10.20;;;6.70;;
7693;SDS011;3889;48.162;11.510;2022-10-31T01:18:29;10.43;;;6.47;;
7693;SDS011;3889;48.162;11.510;2022-10-31T01:20:58;11.98;;;6.80;;
7693;SDS011;3889;48.162;11.510;2022-10-31T01:23:27;9.60;;;6.43;;
7693;SDS011;3889;48.162;11.510;2022-10-31T01:25:59;9.60;;;7.10;;
7693;SDS011;3889;48.162;11.510;2022-10-31T01:28:28;8.17;;;6.73;;
7693;SDS011;3889;48.162;11.510;2022-10-31T01:31:00;12.32;;;7.60;;
7693;SDS011;3889;48.162;11.510;2022-10-31T01:33:29;12.05;;;7.25;;
7693;SDS011;3889;48.162;11.510;2022-10-31T01:35:57;11.47;;;7.20;;
7693;SDS011;3889;48.162;11.510;2022-10-31T01:38:25;11.13;;;6.90;;
7693;SDS011;3889;48.162;11.510;2022-10-31T01:40:53;9.80;;;6.65;;
7693;SDS011;3889;48.162;11.510;2022-10-31T01:43:21;9.93;;;6.80;;
7693;SDS011;3889;48.162;11.510;2022-10-31T01:45:50;10.38;;;7.05;;
7693;SDS011;3889;48.162;11.510;2022-10-31T01:48:23;9.40;;;6.65;;
7693;SDS011;3889;48.162;11.510;2022-10-31T01:50:54;11.00;;;7.25;;
7693;SDS011;3889;48.162;11.510;2022-10-31T01:53:22;10.75;;;6.80;;
7693;SDS011;3889;48.162;11.510;2022-10-31T01:55:52;10.60;;;6.78;;
7693;SDS011;3889;48.162;11.510;2022-10-31T01:58:21;10.20;;;6.90;;
7693;SDS011;3889;48.162;11.510;2022-10-31T02:00:52;11.57;;;6.78;;
7693;SDS011;3889;48.162;11.510;2022-10-31T02:03:28;10.02;;;6.38;;
7693;SDS011;3889;48.162;11.510;2022-10-31T02:05:57;9.17;;;6.37;;
7693;SDS011;3889;48.162;11.510;2022-10-31T02:08:26;10.30;;;6.13;;
7693;SDS011;3889;48.162;11.510;2022-10-31T02:10:56;11.05;;;5.97;;
7693;SDS011;3889;48.162;11.510;2022-10-31T02:13:25;9.05;;;6.18;;
7693;SDS011;3889;48.162;11.510;2022-10-31T02:15:55;9.40;;;6.38;;
7693;SDS011;3889;48.162;11.510;2022-10-31T02:18:25;9.05;;;6.20;;
7693;SDS011;3889;48.162;11.510;2022-10-31T02:20:58;10.47;;;6.30;;
7693;SDS011;3889;48.162;11.510;2022-10-31T02:23:53;10.35;;;6.25;;
7693;SDS011;3889;48.162;11.510;2022-10-31T02:29:41;12.07;;;6.80;;
7693;SDS011;3889;48.162;11.510;2022-10-31T02:32:25;9.60;;;6.13;;
7693;SDS011;3889;48.162;11.510;2022-10-31T02:34:58;10.27;;;6.53;;
7693;SDS011;3889;48.162;11.510;2022-10-31T02:37:34;8.77;;;5.68;;
7693;SDS011;3889;48.162;11.510;2022-10-31T02:40:10;13.27;;;6.72;;
7693;SDS011;3889;48.162;11.510;2022-10-31T02:42:48;8.30;;;5.93;;
7693;SDS011;3889;48.162;11.510;2022-10-31T02:45:24;10.23;;;6.03;;
7693;SDS011;3889;48.162;11.510;2022-10-31T02:47:58;8.35;;;5.70;;
7693;SDS011;3889;48.162;11.510;2022-10-31T02:50:30;8.25;;;5.85;;
7693;SDS011;3889;48.162;11.510;2022-10-31T02:53:01;9.85;;;6.55;;
7693;SDS011;3889;48.162;11.510;2022-10-31T02:55:42;13.13;;;6.93;;
7693;SDS011;3889;48.162;11.510;2022-10-31T02:58:17;9.60;;;6.28;;
7693;SDS011;3889;48.162;11.510;2022-10-31T03:00:50;9.45;;;6.03;;
7693;SDS011;3889;48.162;11.510;2022-10-31T03:03:40;9.57;;;6.10;;
7693;SDS011;3889;48.162;11.510;2022-10-31T03:06:20;7.70;;;5.37;;
7693;SDS011;3889;48.162;11.510;2022-10-31T03:08:54;9.00;;;5.45;;
7693;SDS011;3889;48.162;11.510;2022-10-31T03:11:29;10.43;;;6.23;;
7693;SDS011;3889;48.162;11.510;2022-10-31T03:14:00;12.40;;;5.90;;
7693;SDS011;3889;48.162;11.510;2022-10-31T03:16:38;9.52;;;6.20;;
7693;SDS011;3889;48.162;11.510;2022-10-31T03:19:13;10.48;;;6.07;;
7693;SDS011;3889;48.162;11.510;2022-10-31T03:21:45;9.02;;;5.78;;
7693;SDS011;3889;48.162;11.510;2022-10-31T03:24:15;12.07;;;6.10;;
7693;SDS011;3889;48.162;11.510;2022-10-31T03:26:46;11.05;;;5.57;;
7693;SDS011;3889;48.162;11.510;2022-10-31T03:29:19;9.43;;;5.93;;
7693;SDS011;3889;48.162;11.510;2022-10-31T03:31:51;10.85;;;5.90;;
7693;SDS011;3889;48.162;11.510;2022-10-31T03:34:24;9.82;;;6.40;;
7693;SDS011;3889;48.162;11.510;2022-10-31T03:36:54;9.88;;;6.45;;
7693;SDS011;3889;48.162;11.510;2022-10-31T03:39:23;11.23;;;6.13;;
7693;SDS011;3889;48.162;11.510;2022-10-31T03:41:53;10.50;;;6.45;;
7693;SDS011;3889;48.162;11.510;2022-10-31T03:44:22;8.13;;;5.85;;
7693;SDS011;3889;48.162;11.510;2022-10-31T03:46:51;8.70;;;5.43;;
7693;SDS011;3889;48.162;11.510;2022-10-31T03:49:20;9.27;;;6.03;;
7693;SDS011;3889;48.162;11.510;2022-10-31T03:51:51;7.78;;;5.43;;
7693;SDS011;3889;48.162;11.510;2022-10-31T03:54:24;8.37;;;5.33;;
7693;SDS011;3889;48.162;11.510;2022-10-31T03:56:56;9.15;;;5.80;;
7693;SDS011;3889;48.162;11.510;2022-10-31T03:59:28;6.78;;;5.32;;
7693;SDS011;3889;48.162;11.510;2022-10-31T04:02:00;9.18;;;5.70;;
7693;SDS011;3889;48.162;11.510;2022-10-31T04:04:33;7.20;;;5.38;;
7693;SDS011;3889;48.162;11.510;2022-10-31T04:07:03;11.07;;;6.07;;
7693;SDS011;3889;48.162;11.510;2022-10-31T04:09:35;11.48;;;5.68;;
7693;SDS011;3889;48.162;11.510;2022-10-31T04:12:05;9.30;;;5.28;;
7693;SDS011;3889;48.162;11.510;2022-10-31T04:14:36;8.73;;;5.68;;
7693;SDS011;3889;48.162;11.510;2022-10-31T04:17:07;6.97;;;5.28;;
7693;SDS011;3889;48.162;11.510;2022-10-31T04:19:38;6.93;;;5.15;;
7693;SDS011;3889;48.162;11.510;2022-10-31T04:22:07;9.15;;;6.10;;
7693;SDS011;3889;48.162;11.510;2022-10-31T04:24:35;9.20;;;5.88;;
7693;SDS011;3889;48.162;11.510;2022-10-31T04:27:06;10.85;;;5.93;;
7693;SDS011;3889;48.162;11.510;2022-10-31T04:29:34;9.65;;;5.82;;
7693;SDS011;3889;48.162;11.510;2022-10-31T04:32:01;7.20;;;5.32;;
7693;SDS011;3889;48.162;11.510;2022-10-31T04:34:29;8.77;;;5.10;;
7693;SDS011;3889;48.162;11.510;2022-10-31T04:36:57;9.10;;;5.97;;
7693;SDS011;3889;48.162;11.510;2022-10-31T04:39:26;8.52;;;5.80;;
7693;SDS011;3889;48.162;11.510;2022-10-31T04:41:54;8.82;;;5.40;;
7693;SDS011;3889;48.162;11.510;2022-10-31T04:44:22;8.43;;;5.53;;
7693;SDS011;3889;48.162;11.510;2022-10-31T04:46:50;7.53;;;5.75;;
7693;SDS011;3889;48.162;11.510;2022-10-31T04:49:17;14.63;;;6.35;;
7693;SDS011;3889;48.162;11.510;2022-10-31T04:51:45;9.30;;;5.43;;
7693;SDS011;3889;48.162;11.510;2022-10-31T04:54:13;7.55;;;5.20;;
7693;SDS011;3889;48.162;11.510;2022-10-31T04:56:42;7.70;;;5.25;;
7693;SDS011;3889;48.162;11.510;2022-10-31T04:59:10;10.20;;;5.50;;
7693;SDS011;3889;48.162;11.510;2022-10-31T05:01:37;8.45;;;5.70;;
7693;SDS011;3889;48.162;11.510;2022-10-31T05:04:05;7.78;;;5.38;;
7693;SDS011;3889;48.162;11.510;2022-10-31T05:06:33;11.23;;;5.90;;
7693;SDS011;3889;48.162;11.510;2022-10-31T05:09:01;8.10;;;5.50;;
7693;SDS011;3889;48.162;11.510;2022-10-31T05:11:29;8.98;;;5.45;;
7693;SDS011;3889;48.162;11.510;2022-10-31T05:13:58;7.45;;;5.60;;
7693;SDS011;3889;48.162;11.510;2022-10-31T05:16:26;9.10;;;6.17;;
7693;SDS011;3889;48.162;11.510;2022-10-31T05:18:55;10.60;;;6.30;;
7693;SDS011;3889;48.162;11.510;2022-10-31T05:21:22;8.32;;;6.00;;
7693;SDS011;3889;48.162;11.510;2022-10-31T05:23:50;8.40;;;5.45;;
7693;SDS011;3889;48.162;11.510;2022-10-31T05:26:18;8.93;;;5.65;;
7693;SDS011;3889;48.162;11.510;2022-10-31T05:28:46;6.95;;;5.32;;
7693;SDS011;3889;48.162;11.510;2022-10-31T05:31:15;8.90;;;5.07;;
7693;SDS011;3889;48.162;11.510;2022-10-31T05:33:43;8.15;;;5.30;;
7693;SDS011;3889;48.162;11.510;2022-10-31T05:36:11;5.95;;;4.60;;
7693;SDS011;3889;48.162;11.510;2022-10-31T05:38:38;8.45;;;4.95;;
7693;SDS011;3889;48.162;11.510;2022-10-31T05:41:06;5.65;;;5.00;;
7693;SDS011;3889;48.162;11.510;2022-10-31T05:43:35;8.53;;;5.53;;
7693;SDS011;3889;48.162;11.510;2022-10-31T05:46:03;7.63;;;4.82;;
7693;SDS011;3889;48.162;11.510;2022-10-31T05:48:32;7.20;;;5.00;;
7693;SDS011;3889;48.162;11.510;2022-10-31T05:51:00;7.30;;;5.03;;
7693;SDS011;3889;48.162;11.510;2022-10-31T05:53:28;6.70;;;5.30;;
7693;SDS011;3889;48.162;11.510;2022-10-31T05:55:56;7.88;;;5.30;;
7693;SDS011;3889;48.162;11.510;2022-10-31T05:58:24;8.63;;;5.03;;
7693;SDS011;3889;48.162;11.510;2022-10-31T06:00:52;5.63;;;4.83;;
7693;SDS011;3889;48.162;11.510;2022-10-31T06:03:20;7.47;;;5.50;;
7693;SDS011;3889;48.162;11.510;2022-10-31T06:05:49;8.63;;;5.85;;
7693;SDS011;3889;48.162;11.510;2022-10-31T06:08:20;8.57;;;5.73;;
7693;SDS011;3889;48.162;11.510;2022-10-31T06:10:48;9.73;;;6.25;;
7693;SDS011;3889;48.162;11.510;2022-10-31T06:13:16;8.18;;;5.72;;
7693;SDS011;3889;48.162;11.510;2022-10-31T06:15:44;9.38;;;6.10;;
7693;SDS011;3889;48.162;11.510;2022-10-31T06:18:11;7.15;;;5.60;;
7693;SDS011;3889;48.162;11.510;2022-10-31T06:20:39;7.55;;;5.28;;
7693;SDS011;3889;48.162;11.510;2022-10-31T06:23:08;10.35;;;5.78;;
7693;SDS011;3889;48.162;11.510;2022-10-31T06:25:36;9.38;;;6.10;;
7693;SDS011;3889;48.162;11.510;2022-10-31T06:28:04;7.53;;;5.15;;
7693;SDS011;3889;48.162;11.510;2022-10-31T06:30:32;5.82;;;5.13;;
7693;SDS011;3889;48.162;11.510;2022-10-31T06:33:03;8.57;;;4.95;;
7693;SDS011;3889;48.162;11.510;2022-10-31T06:35:31;9.00;;;5.10;;
7693;SDS011;3889;48.162;11.510;2022-10-31T06:37:59;10.07;;;5.93;;
7693;SDS011;3889;48.162;11.510;2022-10-31T06:40:29;10.27;;;6.55;;
7693;SDS011;3889;48.162;11.510;2022-10-31T06:42:57;7.75;;;5.60;;
7693;SDS011;3889;48.162;11.510;2022-10-31T06:45:25;8.75;;;5.82;;
7693;SDS011;3889;48.162;11.510;2022-10-31T06:47:54;8.10;;;5.93;;
7693;SDS011;3889;48.162;11.510;2022-10-31T06:50:41;12.68;;;6.47;;
7693;SDS011;3889;48.162;11.510;2022-10-31T06:53:09;11.45;;;6.57;;
7693;SDS011;3889;48.162;11.510;2022-10-31T06:55:39;8.32;;;6.15;;
7693;SDS011;3889;48.162;11.510;2022-10-31T06:58:08;9.03;;;5.70;;
7693;SDS011;3889;48.162;11.510;2022-10-31T07:00:37;9.07;;;5.80;;
7693;SDS011;3889;48.162;11.510;2022-10-31T07:03:06;7.90;;;4.80;;
7693;SDS011;3889;48.162;11.510;2022-10-31T07:05:36;7.35;;;5.15;;
7693;SDS011;3889;48.162;11.510;2022-10-31T07:08:04;9.35;;;5.88;;
7693;SDS011;3889;48.162;11.510;2022-10-31T07:10:35;5.93;;;5.10;;
7693;SDS011;3889;48.162;11.510;2022-10-31T07:13:09;9.77;;;6.03;;
7693;SDS011;3889;48.162;11.510;2022-10-31T07:15:40;12.68;;;6.82;;
7693;SDS011;3889;48.162;11.510;2022-10-31T07:18:09;13.88;;;6.80;;
7693;SDS011;3889;48.162;11.510;2022-10-31T07:20:38;11.00;;;6.22;;
7693;SDS011;3889;48.162;11.510;2022-10-31T07:23:06;14.30;;;6.90;;
7693;SDS011;3889;48.162;11.510;2022-10-31T07:25:35;14.68;;;7.57;;
7693;SDS011;3889;48.162;11.510;2022-10-31T07:28:03;14.57;;;7.17;;
7693;SDS011;3889;48.162;11.510;2022-10-31T07:30:32;9.32;;;6.60;;
7693;SDS011;3889;48.162;11.510;2022-10-31T07:33:00;11.70;;;7.82;;
7693;SDS011;3889;48.162;11.510;2022-10-31T07:35:29;13.50;;;7.75;;
7693;SDS011;3889;48.162;11.510;2022-10-31T07:37:57;11.60;;;7.55;;
7693;SDS011;3889;48.162;11.510;2022-10-31T07:40:33;11.32;;;7.35;;
7693;SDS011;3889;48.162;11.510;2022-10-31T07:43:01;13.90;;;7.20;;
7693;SDS011;3889;48.162;11.510;2022-10-31T07:45:29;11.93;;;7.80;;
7693;SDS011;3889;48.162;11.510;2022-10-31T07:47:58;9.93;;;7.53;;
7693;SDS011;3889;48.162;11.510;2022-10-31T07:50:27;11.23;;;7.65;;
7693;SDS011;3889;48.162;11.510;2022-10-31T07:52:59;16.33;;;8.93;;
7693;SDS011;3889;48.162;11.510;2022-10-31T07:55:27;12.05;;;8.43;;
7693;SDS011;3889;48.162;11.510;2022-10-31T07:57:57;15.10;;;9.18;;
7693;SDS011;3889;48.162;11.510;2022-10-31T08:00:26;16.90;;;9.98;;
7693;SDS011;3889;48.162;11.510;2022-10-31T08:02:59;14.73;;;9.30;;
7693;SDS011;3889;48.162;11.510;2022-10-31T08:05:28;12.43;;;8.57;;
7693;SDS011;3889;48.162;11.510;2022-10-31T08:07:56;13.73;;;8.75;;
7693;SDS011;3889;48.162;11.510;2022-10-31T08:10:25;13.97;;;9.00;;
7693;SDS011;3889;48.162;11.510;2022-10-31T08:12:56;13.85;;;8.57;;
7693;SDS011;3889;48.162;11.510;2022-10-31T08:15:25;11.13;;;8.57;;
7693;SDS011;3889;48.162;11.510;2022-10-31T08:17:53;15.48;;;8.63;;
7693;SDS011;3889;48.162;11.510;2022-10-31T08:20:23;13.48;;;9.15;;
7693;SDS011;3889;48.162;11.510;2022-10-31T08:22:54;18.55;;;11.98;;
7693;SDS011;3889;48.162;11.510;2022-10-31T08:25:23;17.33;;;11.35;;
7693;SDS011;3889;48.162;11.510;2022-10-31T08:27:51;17.02;;;10.13;;
7693;SDS011;3889;48.162;11.510;2022-10-31T08:30:20;17.02;;;9.68;;
7693;SDS011;3889;48.162;11.510;2022-10-31T08:32:56;13.40;;;9.50;;
7693;SDS011;3889;48.162;11.510;2022-10-31T08:35:27;18.60;;;10.73;;
7693;SDS011;3889;48.162;11.510;2022-10-31T08:37:55;16.20;;;10.75;;
7693;SDS011;3889;48.162;11.510;2022-10-31T08:40:24;18.35;;;11.20;;
7693;SDS011;3889;48.162;11.510;2022-10-31T08:42:56;16.90;;;11.50;;
7693;SDS011;3889;48.162;11.510;2022-10-31T08:45:25;22.13;;;11.95;;
7693;SDS011;3889;48.162;11.510;2022-10-31T08:47:56;18.02;;;11.35;;
7693;SDS011;3889;48.162;11.510;2022-10-31T08:50:25;22.55;;;11.90;;
7693;SDS011;3889;48.162;11.510;2022-10-31T08:52:59;15.43;;;10.70;;
7693;SDS011;3889;48.162;11.510;2022-10-31T08:55:32;17.75;;;11.30;;
7693;SDS011;3889;48.162;11.510;2022-10-31T08:58:00;16.05;;;10.68;;
7693;SDS011;3889;48.162;11.510;2022-10-31T09:00:29;17.85;;;10.73;;
7693;SDS011;3889;48.162;11.510;2022-10-31T09:02:56;17.88;;;11.15;;
7693;SDS011;3889;48.162;11.510;2022-10-31T09:05:25;16.40;;;10.70;;
7693;SDS011;3889;48.162;11.510;2022-10-31T09:07:55;20.05;;;11.30;;
7693;SDS011;3889;48.162;11.510;2022-10-31T09:10:24;18.88;;;10.63;;
7693;SDS011;3889;48.162;11.510;2022-10-31T09:12:57;16.70;;;10.70;;
7693;SDS011;3889;48.162;11.510;2022-10-31T09:15:25;17.35;;;10.70;;
7693;SDS011;3889;48.162;11.510;2022-10-31T09:17:54;19.33;;;13.38;;
7693;SDS011;3889;48.162;11.510;2022-10-31T09:20:22;19.77;;;11.65;;
7693;SDS011;3889;48.162;11.510;2022-10-31T09:22:56;18.33;;;11.20;;
7693;SDS011;3889;48.162;11.510;2022-10-31T09:25:24;16.98;;;10.77;;
7693;SDS011;3889;48.162;11.510;2022-10-31T09:27:55;20.17;;;11.30;;
7693;SDS011;3889;48.162;11.510;2022-10-31T09:30:24;16.23;;;10.30;;
7693;SDS011;3889;48.162;11.510;2022-10-31T09:32:54;15.35;;;10.25;;
7693;SDS011;3889;48.162;11.510;2022-10-31T09:35:22;20.15;;;10.07;;
7693;SDS011;3889;48.162;11.510;2022-10-31T09:37:55;16.75;;;9.40;;
7693;SDS011;3889;48.162;11.510;2022-10-31T09:40:24;16.77;;;10.03;;
7693;SDS011;3889;48.162;11.510;2022-10-31T09:42:59;15.02;;;9.23;;
7693;SDS011;3889;48.162;11.510;2022-10-31T09:45:36;15.40;;;8.80;;
7693;SDS011;3889;48.162;11.510;2022-10-31T09:48:15;16.88;;;8.32;;
7693;SDS011;3889;48.162;11.510;2022-10-31T09:50:52;18.02;;;8.75;;
7693;SDS011;3889;48.162;11.510;2022-10-31T09:53:25;15.97;;;8.10;;
7693;SDS011;3889;48.162;11.510;2022-10-31T09:55:57;15.85;;;8.65;;
7693;SDS011;3889;48.162;11.510;2022-10-31T09:58:27;20.20;;;8.48;;
7693;SDS011;3889;48.162;11.510;2022-10-31T10:01:01;18.38;;;7.85;;
7693;SDS011;3889;48.162;11.510;2022-10-31T10:03:34;13.38;;;7.53;;
7693;SDS011;3889;48.162;11.510;2022-10-31T10:06:09;12.33;;;7.50;;
7693;SDS011;3889;48.162;11.510;2022-10-31T10:08:43;11.68;;;6.60;;
7693;SDS011;3889;48.162;11.510;2022-10-31T10:11:18;11.63;;;6.07;;
7693;SDS011;3889;48.162;11.510;2022-10-31T10:14:07;16.17;;;8.20;;
7693;SDS011;3889;48.162;11.510;2022-10-31T10:16:52;15.73;;;6.00;;
7693;SDS011;3889;48.162;11.510;2022-10-31T10:19:32;11.73;;;5.97;;
7693;SDS011;3889;48.162;11.510;2022-10-31T10:22:10;14.52;;;5.78;;
7693;SDS011;3889;48.162;11.510;2022-10-31T10:24:48;14.10;;;6.50;;
7693;SDS011;3889;48.162;11.510;2022-10-31T10:27:24;16.77;;;6.60;;
7693;SDS011;3889;48.162;11.510;2022-10-31T10:29:58;26.30;;;17.10;;
7693;SDS011;3889;48.162;11.510;2022-10-31T10:32:29;12.50;;;5.15;;
7693;SDS011;3889;48.162;11.510;2022-10-31T10:35:02;11.00;;;5.30;;
7693;SDS011;3889;48.162;11.510;2022-10-31T10:37:42;10.35;;;4.97;;
7693;SDS011;3889;48.162;11.510;2022-10-31T10:40:13;12.85;;;6.82;;
7693;SDS011;3889;48.162;11.510;2022-10-31T10:42:44;10.75;;;6.00;;
7693;SDS011;3889;48.162;11.510;2022-10-31T10:45:35;11.73;;;5.80;;
7693;SDS011;3889;48.162;11.510;2022-10-31T10:48:25;14.43;;;6.43;;
7693;SDS011;3889;48.162;11.510;2022-10-31T10:51:00;11.75;;;6.20;;
7693;SDS011;3889;48.162;11.510;2022-10-31T10:53:35;15.15;;;5.68;;
7693;SDS011;3889;48.162;11.510;2022-10-31T10:56:34;16.90;;;8.05;;
7693;SDS011;3889;48.162;11.510;2022-10-31T10:59:09;27.00;;;14.18;;
7693;SDS011;3889;48.162;11.510;2022-10-31T11:01:39;31.55;;;14.40;;
7693;SDS011;3889;48.162;11.510;2022-10-31T11:06:58;12.93;;;6.60;;
7693;SDS011;3889;48.162;11.510;2022-10-31T11:09:26;10.80;;;4.25;;
7693;SDS011;3889;48.162;11.510;2022-10-31T11:11:56;14.80;;;6.82;;
7693;SDS011;3889;48.162;11.510;2022-10-31T11:14:26;12.40;;;6.00;;
7693;SDS011;3889;48.162;11.510;2022-10-31T11:16:55;12.35;;;5.55;;
7693;SDS011;3889;48.162;11.510;2022-10-31T11:19:36;12.33;;;4.10;;
7693;SDS011;3889;48.162;11.510;2022-10-31T11:22:07;10.47;;;3.83;;
7693;SDS011;3889;48.162;11.510;2022-10-31T11:24:40;9.87;;;3.97;;
7693;SDS011;3889;48.162;11.510;2022-10-31T11:27:14;10.15;;;4.05;;
7693;SDS011;3889;48.162;11.510;2022-10-31T11:29:47;12.57;;;4.85;;
7693;SDS011;3889;48.162;11.510;2022-10-31T11:32:17;9.52;;;3.90;;
7693;SDS011;3889;48.162;11.510;2022-10-31T11:34:48;12.23;;;3.65;;
7693;SDS011;3889;48.162;11.510;2022-10-31T11:37:20;11.95;;;4.65;;
7693;SDS011;3889;48.162;11.510;2022-10-31T11:39:51;10.35;;;3.85;;
7693;SDS011;3889;48.162;11.510;2022-10-31T11:42:23;10.73;;;4.27;;
7693;SDS011;3889;48.162;11.510;2022-10-31T11:44:54;11.27;;;4.25;;
7693;SDS011;3889;48.162;11.510;2022-10-31T11:47:25;12.57;;;4.97;;
7693;SDS011;3889;48.162;11.510;2022-10-31T11:49:55;12.45;;;6.05;;
7693;SDS011;3889;48.162;11.510;2022-10-31T11:52:25;13.85;;;7.00;;
7693;SDS011;3889;48.162;11.510;2022-10-31T11:54:54;7.95;;;3.92;;
7693;SDS011;3889;48.162;11.510;2022-10-31T11:57:27;12.07;;;3.60;;
7693;SDS011;3889;48.162;11.510;2022-10-31T11:59:59;9.32;;;3.95;;
7693;SDS011;3889;48.162;11.510;2022-10-31T12:02:29;8.95;;;3.63;;
7693;SDS011;3889;48.162;11.510;2022-10-31T12:04:59;11.63;;;4.07;;
7693;SDS011;3889;48.162;11.510;2022-10-31T12:07:31;9.85;;;4.13;;
7693;SDS011;3889;48.162;11.510;2022-10-31T12:09:59;9.50;;;4.00;;
7693;SDS011;3889;48.162;11.510;2022-10-31T12:12:35;9.68;;;3.72;;
7693;SDS011;3889;48.162;11.510;2022-10-31T12:15:30;7.32;;;3.45;;
7693;SDS011;3889;48.162;11.510;2022-10-31T12:18:09;11.02;;;4.63;;
7693;SDS011;3889;48.162;11.510;2022-10-31T12:21:03;13.55;;;4.88;;
7693;SDS011;3889;48.162;11.510;2022-10-31T12:23:47;16.23;;;6.25;;
7693;SDS011;3889;48.162;11.510;2022-10-31T12:26:38;10.18;;;3.95;;
7693;SDS011;3889;48.162;11.510;2022-10-31T12:29:18;10.68;;;5.35;;
7693;SDS011;3889;48.162;11.510;2022-10-31T12:31:59;11.98;;;5.43;;
7693;SDS011;3889;48.162;11.510;2022-10-31T12:37:45;16.60;;;9.48;;
7693;SDS011;3889;48.162;11.510;2022-10-31T12:40:29;14.13;;;7.03;;
7693;SDS011;3889;48.162;11.510;2022-10-31T12:43:14;15.82;;;6.93;;
7693;SDS011;3889;48.162;11.510;2022-10-31T12:45:56;12.40;;;6.28;;
7693;SDS011;3889;48.162;11.510;2022-10-31T12:48:32;16.25;;;6.45;;
7693;SDS011;3889;48.162;11.510;2022-10-31T12:51:12;11.07;;;5.70;;
7693;SDS011;3889;48.162;11.510;2022-10-31T12:53:51;13.13;;;5.68;;
7693;SDS011;3889;48.162;11.510;2022-10-31T12:56:29;12.55;;;5.72;;
7693;SDS011;3889;48.162;11.510;2022-10-31T12:59:07;9.80;;;4.43;;
7693;SDS011;3889;48.162;11.510;2022-10-31T13:01:43;8.95;;;4.18;;
7693;SDS011;3889;48.162;11.510;2022-10-31T13:04:18;9.82;;;4.25;;
7693;SDS011;3889;48.162;11.510;2022-10-31T13:06:53;10.30;;;4.97;;
7693;SDS011;3889;48.162;11.510;2022-10-31T13:09:26;10.93;;;4.65;;
7693;SDS011;3889;48.162;11.510;2022-10-31T13:11:59;13.70;;;4.30;;
7693;SDS011;3889;48.162;11.510;2022-10-31T13:14:32;11.73;;;4.13;;
7693;SDS011;3889;48.162;11.510;2022-10-31T13:17:04;12.65;;;4.50;;
7693;SDS011;3889;48.162;11.510;2022-10-31T13:19:36;12.38;;;5.40;;
7693;SDS011;3889;48.162;11.510;2022-10-31T13:22:07;11.43;;;5.75;;
7693;SDS011;3889;48.162;11.510;2022-10-31T13:24:41;13.63;;;6.35;;
7693;SDS011;3889;48.162;11.510;2022-10-31T13:27:13;10.05;;;4.45;;
7693;SDS011;3889;48.162;11.510;2022-10-31T13:29:48;14.73;;;6.82;;
7693;SDS011;3889;48.162;11.510;2022-10-31T13:32:25;18.27;;;9.10;;
7693;SDS011;3889;48.162;11.510;2022-10-31T13:34:56;14.48;;;5.25;;
7693;SDS011;3889;48.162;11.510;2022-10-31T13:37:27;10.43;;;4.95;;
7693;SDS011;3889;48.162;11.510;2022-10-31T13:40:06;12.45;;;4.53;;
7693;SDS011;3889;48.162;11.510;2022-10-31T13:42:45;10.70;;;4.70;;
7693;SDS011;3889;48.162;11.510;2022-10-31T13:45:22;14.32;;;4.60;;
7693;SDS011;3889;48.162;11.510;2022-10-31T13:47:56;12.75;;;4.90;;
7693;SDS011;3889;48.162;11.510;2022-10-31T13:50:27;37.38;;;16.35;;
7693;SDS011;3889;48.162;11.510;2022-10-31T13:53:12;29.17;;;14.67;;
7693;SDS011;3889;48.162;11.510;2022-10-31T13:55:42;19.60;;;9.52;;
7693;SDS011;3889;48.162;11.510;2022-10-31T13:58:21;18.40;;;7.83;;
7693;SDS011;3889;48.162;11.510;2022-10-31T14:01:03;17.15;;;8.00;;
7693;SDS011;3889;48.162;11.510;2022-10-31T14:03:46;13.18;;;5.07;;
7693;SDS011;3889;48.162;11.510;2022-10-31T14:06:35;15.70;;;5.78;;
7693;SDS011;3889;48.162;11.510;2022-10-31T14:09:05;11.25;;;4.53;;
7693;SDS011;3889;48.162;11.510;2022-10-31T14:11:46;13.32;;;5.78;;
7693;SDS011;3889;48.162;11.510;2022-10-31T14:14:15;13.45;;;5.95;;
7693;SDS011;3889;48.162;11.510;2022-10-31T14:16:45;12.10;;;5.18;;
7693;SDS011;3889;48.162;11.510;2022-10-31T14:19:22;14.82;;;5.30;;
7693;SDS011;3889;48.162;11.510;2022-10-31T14:21:51;15.18;;;4.95;;
7693;SDS011;3889;48.162;11.510;2022-10-31T14:24:35;38.53;;;17.38;;
7693;SDS011;3889;48.162;11.510;2022-10-31T14:27:05;19.92;;;8.00;;
7693;SDS011;3889;48.162;11.510;2022-10-31T14:30:14;17.08;;;7.60;;
7693;SDS011;3889;48.162;11.510;2022-10-31T14:32:53;22.70;;;8.68;;
7693;SDS011;3889;48.162;11.510;2022-10-31T14:35:27;18.63;;;9.38;;
7693;SDS011;3889;48.162;11.510;2022-10-31T14:38:14;13.35;;;4.95;;
7693;SDS011;3889;48.162;11.510;2022-10-31T14:41:01;11.30;;;4.70;;
7693;SDS011;3889;48.162;11.510;2022-10-31T14:44:05;9.87;;;4.63;;
7693;SDS011;3889;48.162;11.510;2022-10-31T14:46:49;8.55;;;4.50;;
7693;SDS011;3889;48.162;11.510;2022-10-31T14:52:16;10.45;;;4.80;;
7693;SDS011;3889;48.162;11.510;2022-10-31T14:54:45;10.88;;;5.00;;
7693;SDS011;3889;48.162;11.510;2022-10-31T14:57:19;13.30;;;5.10;;
7693;SDS011;3889;48.162;11.510;2022-10-31T14:59:50;18.60;;;5.50;;
7693;SDS011;3889;48.162;11.510;2022-10-31T15:02:28;15.48;;;5.28;;
7693;SDS011;3889;48.162;11.510;2022-10-31T15:05:03;14.07;;;6.15;;
7693;SDS011;3889;48.162;11.510;2022-10-31T15:07:36;13.35;;;5.95;;
7693;SDS011;3889;48.162;11.510;2022-10-31T15:10:19;15.77;;;6.47;;
7693;SDS011;3889;48.162;11.510;2022-10-31T15:12:48;14.37;;;6.20;;
7693;SDS011;3889;48.162;11.510;2022-10-31T15:15:18;11.02;;;5.70;;
7693;SDS011;3889;48.162;11.510;2022-10-31T15:17:48;11.85;;;6.28;;
7693;SDS011;3889;48.162;11.510;2022-10-31T15:20:20;17.45;;;8.85;;
7693;SDS011;3889;48.162;11.510;2022-10-31T15:22:51;13.13;;;6.60;;
7693;SDS011;3889;48.162;11.510;2022-10-31T15:25:23;13.85;;;7.03;;
7693;SDS011;3889;48.162;11.510;2022-10-31T15:27:54;13.05;;;6.63;;
7693;SDS011;3889;48.162;11.510;2022-10-31T15:30:23;12.35;;;7.28;;
7693;SDS011;3889;48.162;11.510;2022-10-31T15:32:52;16.38;;;7.85;;